Time;durP1;ratioP1;P1;durP2;ratioP2;P2;SDS_P1;SDS_P2;PMS_P1;PMS_P2;Temp;Humidity;BMP_temperature;BMP_pressure;BME280_temperature;BME280_humidity;BME280_pressure;Samples;Min_cycle;Max_cycle;Signal;HPM_P1;HPM_P2
2023/09/11 00:01:16;;;;;;;6.15;2.25;;;;;;;17.04;88.49;64762.03;5052555;28;20205;-56
2023/09/11 00:03:41;;;;;;;4.28;2.50;;;;;;;16.92;89.82;64746.25;5052715;28;20211;-54
2023/09/11 00:06:07;;;;;;;7.57;2.70;;;;;;;16.99;89.16;64756.50;5052855;28;20292;-54
2023/09/11 00:08:33;;;;;;;5.13;2.38;;;;;;;16.91;90.44;64745.16;5052587;28;20197;-55
2023/09/11 00:10:59;;;;;;;3.88;2.20;;;;;;;17.00;90.28;64754.53;5052382;28;20267;-55
2023/09/11 00:13:26;;;;;;;4.72;2.58;;;;;;;16.96;90.18;64752.66;5052401;28;20641;-53
2023/09/11 00:15:51;;;;;;;5.43;2.70;;;;;;;16.95;90.45;64749.03;5052316;28;20683;-54
2023/09/11 00:18:16;;;;;;;4.38;2.10;;;;;;;16.71;91.58;64725.69;5034440;28;20279;-53
2023/09/11 00:20:42;;;;;;;4.22;2.33;;;;;;;16.61;92.28;64712.66;5052386;28;20563;-55
2023/09/11 00:23:08;;;;;;;2.55;2.08;;;;;;;16.73;91.68;64725.88;5034298;28;20256;-54
2023/09/11 00:25:34;;;;;;;3.65;2.13;;;;;;;16.77;91.17;64730.28;5052197;28;20297;-54
2023/09/11 00:28:00;;;;;;;3.63;1.90;;;;;;;16.78;90.69;64731.41;5051664;28;20212;-54
2023/09/11 00:30:26;;;;;;;3.13;1.80;;;;;;;16.66;92.10;64720.19;5052164;28;20752;-54
2023/09/11 00:32:52;;;;;;;7.57;2.45;;;;;;;16.86;91.83;64739.09;5052219;28;20213;-55
2023/09/11 00:35:17;;;;;;;2.80;1.90;;;;;;;16.74;90.65;64729.53;5051958;28;20208;-54
2023/09/11 00:37:43;;;;;;;5.05;2.30;;;;;;;16.69;92.30;64723.47;5052146;28;20217;-53
2023/09/11 00:40:09;;;;;;;3.90;2.28;;;;;;;16.77;91.74;64732.84;5052221;28;20664;-53
2023/09/11 00:42:35;;;;;;;4.35;2.17;;;;;;;16.91;90.99;64747.16;5034090;28;20245;-53
2023/09/11 00:45:00;;;;;;;2.35;2.10;;;;;;;16.70;91.70;64727.66;5051926;28;20220;-55
2023/09/11 00:47:26;;;;;;;3.65;2.38;;;;;;;16.62;92.81;64716.31;5052446;28;20299;-54
2023/09/11 00:49:54;;;;;;;6.68;2.00;;;;;;;16.46;94.00;64698.66;5051968;28;20190;-52
2023/09/11 00:52:20;;;;;;;4.03;1.70;;;;;;;16.40;94.02;64692.06;5052124;28;20225;-54
2023/09/11 00:54:46;;;;;;;5.85;2.33;;;;;;;16.41;94.21;64693.19;5051959;28;20225;-54
2023/09/11 00:57:17;;;;;;;5.60;1.90;;;;;;;16.53;92.37;64706.41;5051540;28;20225;-53
2023/09/11 00:59:48;;;;;;;5.00;2.22;;;;;;;16.52;92.21;64704.75;5051890;28;20284;-54
2023/09/11 01:02:14;;;;;;;5.03;1.80;;;;;;;16.26;94.45;64671.03;5051598;28;20209;-54
2023/09/11 01:04:44;;;;;;;3.60;2.20;;;;;;;16.22;94.60;64669.72;5051765;28;20735;-54
2023/09/11 01:07:13;;;;;;;4.18;1.85;;;;;;;16.24;93.77;64671.91;5052206;28;20222;-54
2023/09/11 01:09:40;;;;;;;4.53;1.92;;;;;;;16.30;93.87;64680.53;5033678;28;20747;-53
2023/09/11 01:12:07;;;;;;;5.10;1.70;;;;;;;16.26;93.97;64676.66;5051826;28;20205;-54
2023/09/11 01:14:35;;;;;;;2.80;1.55;;;;;;;16.23;94.25;64672.81;5051697;28;20656;-53
2023/09/11 01:17:24;;;;;;;3.80;1.75;;;;;;;16.38;93.02;64684.25;5051676;28;20259;-52
2023/09/11 01:20:21;;;;;;;4.90;1.92;;;;;;;16.33;93.59;64678.72;5051616;28;20201;-55
2023/09/11 01:22:56;;;;;;;2.78;1.60;;;;;;;16.28;93.59;64681.41;5051339;28;20225;-53
2023/09/11 01:25:27;;;;;;;2.45;1.90;;;;;;;16.28;94.03;64681.41;5051261;28;20204;-63
2023/09/11 01:28:26;;;;;;;4.40;1.63;;;;;;;16.34;93.64;64682.91;5049913;28;20248;-54
2023/09/11 01:30:54;;;;;;;6.68;2.05;;;;;;;16.18;95.47;64667.84;5051250;28;20786;-53
2023/09/11 01:33:20;;;;;;;4.35;2.00;;;;;;;16.13;95.63;64664.91;5051261;28;20205;-53
2023/09/11 01:35:45;;;;;;;3.70;2.10;;;;;;;16.01;96.28;64649.16;5051239;28;20339;-57
2023/09/11 01:38:11;;;;;;;5.78;1.77;;;;;;;16.03;96.53;64648.81;5049906;28;20774;-53
2023/09/11 01:40:42;;;;;;;4.60;1.98;;;;;;;16.08;96.66;64656.84;5051093;28;20297;-54
2023/09/11 01:43:11;;;;;;;3.72;2.22;;;;;;;16.07;96.73;64655.19;5051027;28;20197;-54
2023/09/11 01:45:39;;;;;;;2.88;1.70;;;;;;;15.99;97.44;64644.41;5050885;28;20224;-53
2023/09/11 01:48:06;;;;;;;4.50;2.10;;;;;;;15.98;97.45;64642.75;5051076;28;20206;-54
2023/09/11 01:50:34;;;;;;;3.97;1.80;;;;;;;15.89;98.17;64633.41;5051184;28;20271;-54
2023/09/11 01:52:59;;;;;;;6.10;1.98;;;;;;;15.83;98.45;64627.34;5050851;28;20647;-54
2023/09/11 01:55:25;;;;;;;4.35;1.90;;;;;;;15.61;99.61;64602.59;5050693;28;20217;-53
2023/09/11 01:57:51;;;;;;;5.10;1.70;;;;;;;15.75;99.99;64623.63;5050718;28;20205;-55
2023/09/11 02:00:16;;;;;;;3.72;2.03;;;;;;;15.71;100.00;64614.16;5050695;28;20300;-55
2023/09/11 02:02:41;;;;;;;6.80;2.17;;;;;;;15.82;99.60;64626.25;5050715;28;20564;-57
2023/09/11 02:05:07;;;;;;;5.15;1.95;;;;;;;15.97;97.55;64642.22;5050804;28;20581;-58
2023/09/11 02:07:33;;;;;;;3.22;1.83;;;;;;;15.74;99.54;64614.34;5050726;28;20606;-57
2023/09/11 02:09:58;;;;;;;4.78;2.33;;;;;;;15.69;100.00;64613.94;5050678;28;20691;-53
2023/09/11 02:12:23;;;;;;;4.60;1.88;;;;;;;15.66;99.70;64611.19;5050643;28;20245;-54
2023/09/11 02:14:56;;;;;;;3.00;1.70;;;;;;;15.58;99.82;64601.81;5050594;28;20552;-55
2023/09/11 02:17:21;;;;;;;2.92;1.52;;;;;;;15.62;98.70;64603.69;5050375;28;20363;-53
2023/09/11 02:19:47;;;;;;;5.80;1.75;;;;;;;15.56;100.00;64600.19;5050796;28;20291;-53
2023/09/11 02:22:12;;;;;;;4.35;1.67;;;;;;;15.45;100.00;64587.53;5050769;28;20602;-54
2023/09/11 02:24:38;;;;;;;4.88;1.85;;;;;;;15.47;100.00;64587.19;5050674;28;20209;-55
2023/09/11 02:27:04;;;;;;;7.03;1.85;;;;;;;15.40;100.00;64582.56;5050553;28;20359;-54
2023/09/11 02:29:29;;;;;;;2.85;1.75;;;;;;;15.25;100.00;64565.53;5050369;28;20201;-53
2023/09/11 02:31:54;;;;;;;4.32;1.95;;;;;;;15.35;100.00;64577.06;5050290;28;20220;-53
2023/09/11 02:34:20;;;;;;;7.47;2.10;;;;;;;15.60;100.00;64604.03;5050404;28;20211;-53
2023/09/11 02:36:45;;;;;;;6.53;1.90;;;;;;;15.54;100.00;64597.97;5050456;28;20585;-54
2023/09/11 02:39:11;;;;;;;2.25;1.65;;;;;;;15.63;98.72;64604.81;5050380;28;20292;-53
2023/09/11 02:41:36;;;;;;;3.20;1.65;;;;;;;15.67;98.56;64611.75;5050578;28;20288;-54
2023/09/11 02:44:02;;;;;;;4.88;1.98;;;;;;;15.59;98.98;64602.94;5050196;28;20369;-53
2023/09/11 02:46:27;;;;;;;4.55;1.95;;;;;;;15.45;100.00;64585.56;5050251;28;20635;-53
2023/09/11 02:48:52;;;;;;;2.63;1.73;;;;;;;15.31;100.00;64572.66;5050169;28;20177;-53
2023/09/11 02:51:18;;;;;;;3.08;2.05;;;;;;;15.31;100.00;64570.13;5056394;28;20748;-53
2023/09/11 02:53:44;;;;;;;4.93;1.70;;;;;;;15.31;100.00;64572.66;5057065;28;20679;-54
2023/09/11 02:56:09;;;;;;;8.05;3.40;;;;;;;15.26;100.00;64564.06;5056703;28;20290;-56
2023/09/11 02:58:35;;;;;;;4.15;2.38;;;;;;;15.13;100.00;64550.31;5056886;28;20741;-54
2023/09/11 03:01:02;;;;;;;5.38;2.88;;;;;;;15.26;100.00;64566.63;5056699;28;20295;-54
2023/09/11 03:03:28;;;;;;;15.60;10.77;;;;;;;15.24;100.00;64566.94;5056725;28;20214;-54
2023/09/11 03:06:01;;;;;;;3.78;3.10;;;;;;;15.41;100.00;64583.13;5056370;28;20730;-54
2023/09/11 03:08:26;;;;;;;2.22;2.00;;;;;;;15.34;100.00;64575.41;5056592;28;20190;-55
2023/09/11 03:10:53;;;;;;;11.50;6.03;;;;;;;15.18;100.00;64555.28;5056579;28;20297;-54
2023/09/11 03:13:18;;;;;;;11.77;4.82;;;;;;;15.17;100.00;64556.72;5056557;28;20193;-57
2023/09/11 03:15:44;;;;;;;8.90;2.53;;;;;;;15.09;100.00;64546.47;5056220;28;20342;-54
2023/09/11 03:18:10;;;;;;;6.53;3.78;;;;;;;15.15;100.00;64555.63;5056531;28;20223;-53
2023/09/11 03:20:35;;;;;;;8.38;5.63;;;;;;;15.17;100.00;64556.72;5056527;28;20201;-53
2023/09/11 03:23:01;;;;;;;2.60;1.98;;;;;;;15.36;100.00;64578.16;5056380;28;20223;-54
2023/09/11 03:25:27;;;;;;;4.32;1.85;;;;;;;15.56;99.88;64597.09;5056355;28;20691;-61
2023/09/11 03:27:53;;;;;;;1.85;1.50;;;;;;;15.43;100.00;64582.81;5056294;28;20216;-56
2023/09/11 03:30:18;;;;;;;3.90;2.38;;;;;;;15.37;100.00;64581.25;5056398;28;20197;-53
2023/09/11 03:32:44;;;;;;;6.13;2.40;;;;;;;15.10;100.00;64550.13;5056291;28;20288;-57
2023/09/11 03:35:09;;;;;;;3.70;2.00;;;;;;;15.28;100.00;64564.28;5038174;28;20300;-54
2023/09/11 03:37:35;;;;;;;3.60;1.42;;;;;;;15.19;100.00;64556.38;5056163;28;20324;-53
2023/09/11 03:40:06;;;;;;;3.20;1.80;;;;;;;15.14;100.00;64554.53;5056080;28;20197;-54
2023/09/11 03:42:32;;;;;;;6.53;1.90;;;;;;;15.10;100.00;64547.03;5038334;28;20286;-53
2023/09/11 03:44:57;;;;;;;9.27;3.95;;;;;;;15.07;100.00;64544.28;5055991;28;20676;-55
2023/09/11 03:47:23;;;;;;;8.73;2.78;;;;;;;15.13;100.00;64553.41;5056568;28;20308;-57
2023/09/11 03:49:48;;;;;;;5.47;2.40;;;;;;;15.20;100.00;64560.56;5056108;28;20642;-54
2023/09/11 03:52:14;;;;;;;4.93;2.10;;;;;;;15.18;100.00;64552.75;5038211;28;20204;-54
2023/09/11 03:54:39;;;;;;;5.28;4.15;;;;;;;15.10;100.00;64552.66;5055827;28;20208;-54
2023/09/11 03:57:05;;;;;;;5.55;2.65;;;;;;;15.00;100.00;64539.13;5055979;28;20245;-54
2023/09/11 03:59:30;;;;;;;3.58;1.80;;;;;;;15.26;100.00;64566.63;5056020;28;20201;-52
2023/09/11 04:01:56;;;;;;;5.47;2.72;;;;;;;15.23;100.00;64561.31;5053003;28;20556;-55
2023/09/11 04:04:22;;;;;;;4.00;2.15;;;;;;;15.34;100.00;64575.41;5052650;28;20209;-55
2023/09/11 04:06:47;;;;;;;4.35;2.10;;;;;;;15.11;100.00;64550.66;5052754;28;20701;-54
2023/09/11 04:09:13;;;;;;;5.15;2.67;;;;;;;14.96;100.00;64534.75;5052678;28;20197;-55
2023/09/11 04:11:38;;;;;;;3.20;2.17;;;;;;;14.99;100.00;64537.47;5052673;28;20623;-54
2023/09/11 04:14:04;;;;;;;2.65;1.65;;;;;;;15.06;100.00;64545.72;5052577;28;20201;-53
2023/09/11 04:16:29;;;;;;;3.72;1.90;;;;;;;15.11;100.00;64550.66;5052473;28;20221;-53
2023/09/11 04:18:54;;;;;;;2.35;1.73;;;;;;;15.39;100.00;64580.91;5034601;28;20209;-55
2023/09/11 04:21:20;;;;;;;4.40;1.90;;;;;;;15.22;100.00;64559.69;5052585;28;20346;-58
2023/09/11 04:23:46;;;;;;;2.78;2.03;;;;;;;15.38;99.90;64580.38;5052647;28;20205;-55
2023/09/11 04:26:12;;;;;;;3.65;1.88;;;;;;;15.42;99.52;64584.78;5052351;28;20266;-55
2023/09/11 04:28:37;;;;;;;6.78;2.55;;;;;;;15.52;97.66;64595.78;5052197;28;20212;-56
2023/09/11 04:31:03;;;;;;;4.65;2.60;;;;;;;15.34;98.10;64575.97;5052036;28;20249;-54
2023/09/11 04:33:29;;;;;;;5.13;2.20;;;;;;;15.21;99.54;64561.66;5052291;28;20284;-54
2023/09/11 04:35:54;;;;;;;7.25;2.55;;;;;;;15.32;99.34;64573.22;5052135;28;20557;-59
2023/09/11 04:38:20;;;;;;;9.05;2.70;;;;;;;15.55;97.86;64596.00;5052110;28;20194;-55
2023/09/11 04:40:45;;;;;;;5.75;2.95;;;;;;;15.50;97.21;64590.50;5052053;28;20632;-55
2023/09/11 04:43:11;;;;;;;5.32;2.92;;;;;;;15.47;97.49;64590.28;5033998;28;20205;-54
2023/09/11 04:45:36;;;;;;;4.53;2.97;;;;;;;15.20;99.20;64560.00;5051978;28;20682;-53
2023/09/11 04:48:02;;;;;;;5.65;2.90;;;;;;;15.05;100.00;64546.59;5051791;28;20589;-54
2023/09/11 04:50:27;;;;;;;9.77;2.55;;;;;;;15.00;100.00;64536.03;5051926;28;20674;-57
2023/09/11 04:52:55;;;;;;;3.63;2.92;;;;;;;15.05;100.00;64544.06;5033838;28;20217;-64
2023/09/11 04:55:21;;;;;;;5.28;2.42;;;;;;;15.05;100.00;64542.09;5051649;28;20220;-57
2023/09/11 04:57:47;;;;;;;6.80;2.53;;;;;;;15.09;100.00;64543.94;5051715;28;20205;-55
2023/09/11 05:00:13;;;;;;;5.18;2.95;;;;;;;15.08;100.00;64544.84;5050484;28;20395;-54
2023/09/11 05:02:38;;;;;;;5.20;2.85;;;;;;;15.08;100.00;64547.94;5051762;28;20220;-54
2023/09/11 05:05:04;;;;;;;7.28;2.90;;;;;;;15.35;100.00;64577.06;5051796;28;20201;-54
2023/09/11 05:07:30;;;;;;;7.55;3.17;;;;;;;15.60;99.53;64602.03;5051528;28;20221;-55
2023/09/11 05:09:56;;;;;;;5.32;3.13;;;;;;;15.76;98.87;64621.63;5051735;28;20194;-54
2023/09/11 05:12:21;;;;;;;5.60;3.13;;;;;;;15.81;97.28;64627.69;5051368;28;20221;-54
2023/09/11 05:14:47;;;;;;;5.50;3.50;;;;;;;15.62;97.95;64603.69;5051692;28;20217;-54
2023/09/11 05:17:12;;;;;;;6.68;2.95;;;;;;;15.61;98.87;64605.13;5052001;28;20296;-55
2023/09/11 05:19:38;;;;;;;9.05;4.13;;;;;;;15.29;100.00;64570.47;5051471;28;20616;-53
2023/09/11 05:22:04;;;;;;;6.38;3.15;;;;;;;14.92;100.00;64529.78;5051665;28;20292;-59
2023/09/11 05:24:31;;;;;;;6.65;3.05;;;;;;;14.90;100.00;64525.59;5051552;28;20284;-54
2023/09/11 05:26:57;;;;;;;10.43;3.22;;;;;;;15.12;100.00;64552.31;5051159;28;20217;-53
2023/09/11 05:29:22;;;;;;;5.15;3.05;;;;;;;15.20;100.00;64560.00;5051279;28;20278;-54
2023/09/11 05:31:48;;;;;;;7.40;3.60;;;;;;;14.88;100.00;64523.41;5051063;28;20214;-54
2023/09/11 05:34:13;;;;;;;7.00;3.03;;;;;;;14.98;100.00;64533.84;5051133;28;20262;-53
2023/09/11 05:36:39;;;;;;;8.63;3.50;;;;;;;15.21;100.00;64561.13;5043394;22;20642;-53
2023/09/11 05:39:05;;;;;;;4.45;3.00;;;;;;;15.28;100.00;64569.38;5051128;28;20205;-52
2023/09/11 05:41:31;;;;;;;9.52;3.53;;;;;;;15.36;100.00;64575.06;5045496;28;20688;-51
2023/09/11 05:43:56;;;;;;;7.90;3.47;;;;;;;15.50;100.00;64593.03;5046303;28;20226;-51
2023/09/11 05:46:22;;;;;;;8.48;3.95;;;;;;;15.57;100.00;64598.19;5031221;28;20226;-51
2023/09/11 05:48:48;;;;;;;7.35;3.60;;;;;;;15.69;100.00;64611.41;5031320;28;20285;-51
2023/09/11 05:51:14;;;;;;;5.75;3.33;;;;;;;15.77;100.00;64623.28;5029818;28;20704;-52
2023/09/11 05:53:39;;;;;;;9.30;3.47;;;;;;;15.89;100.00;64635.94;5031257;28;20202;-52
2023/09/11 05:56:05;;;;;;;8.50;4.15;;;;;;;15.69;100.00;64613.94;5031198;28;20214;-52
2023/09/11 05:58:30;;;;;;;7.57;4.00;;;;;;;15.81;99.84;64627.69;5031185;28;20202;-52
2023/09/11 06:00:57;;;;;;;10.60;3.60;;;;;;;16.01;99.55;64643.50;5031244;28;20221;-52
2023/09/11 06:03:22;;;;;;;11.98;4.10;;;;;;;15.89;100.00;64636.50;5030819;28;20252;-53
2023/09/11 06:05:48;;;;;;;7.82;4.45;;;;;;;16.09;99.51;64657.41;5030851;28;20178;-55
2023/09/11 06:08:15;;;;;;;5.57;3.47;;;;;;;16.29;97.91;64676.88;5031045;28;20206;-52
2023/09/11 06:10:41;;;;;;;16.27;4.43;;;;;;;16.25;97.28;64675.00;5046068;28;20734;-52
2023/09/11 06:13:07;;;;;;;18.15;4.75;;;;;;;16.15;98.20;64662.00;5030830;28;20206;-53
2023/09/11 06:15:32;;;;;;;11.25;4.30;;;;;;;16.24;98.09;64673.91;5030907;28;20221;-52
2023/09/11 06:17:58;;;;;;;9.70;4.05;;;;;;;16.41;96.95;64692.63;5030931;28;20264;-51
2023/09/11 06:20:24;;;;;;;10.98;5.30;;;;;;;16.14;97.82;64660.91;5030735;28;20190;-51
2023/09/11 06:22:51;;;;;;;9.15;4.13;;;;;;;16.16;98.18;64665.66;5030859;28;20304;-54
2023/09/11 06:25:17;;;;;;;10.93;4.55;;;;;;;16.29;97.62;64674.31;5030060;28;20194;-55
2023/09/11 06:27:42;;;;;;;10.57;5.07;;;;;;;16.13;99.06;64659.81;5030803;28;20260;-55
2023/09/11 06:30:09;;;;;;;7.30;3.80;;;;;;;16.33;96.94;64681.28;5029582;28;20579;-55
2023/09/11 06:32:34;;;;;;;7.85;4.10;;;;;;;16.47;96.02;64699.22;5030286;28;20317;-54
2023/09/11 06:35:01;;;;;;;6.88;4.20;;;;;;;16.56;94.46;64709.16;5030558;28;20244;-53
2023/09/11 06:37:27;;;;;;;10.52;4.15;;;;;;;16.59;93.92;64713.00;5030880;28;20226;-54
2023/09/11 06:39:53;;;;;;;7.72;4.53;;;;;;;16.76;93.30;64728.66;5030615;28;20568;-50
2023/09/11 06:42:21;;;;;;;7.85;4.55;;;;;;;16.82;92.08;64737.25;5029149;28;20206;-50
2023/09/11 06:44:47;;;;;;;11.32;4.47;;;;;;;16.95;91.74;64751.56;5030404;28;20244;-51
2023/09/11 06:47:19;;;;;;;8.93;4.10;;;;;;;17.07;91.26;64764.78;5030599;28;20218;-51
2023/09/11 06:49:46;;;;;;;7.93;4.50;;;;;;;17.20;91.63;64776.56;5030328;28;20288;-52
2023/09/11 06:52:11;;;;;;;7.90;4.00;;;;;;;17.50;88.72;64810.19;5030279;28;20301;-51
2023/09/11 06:54:37;;;;;;;8.63;4.80;;;;;;;17.72;87.23;64836.41;5030139;28;20702;-51
2023/09/11 06:57:02;;;;;;;9.13;4.05;;;;;;;17.81;86.31;64843.25;5030546;28;20214;-50
2023/09/11 06:59:28;;;;;;;12.27;4.00;;;;;;;17.87;86.14;64850.41;5030289;28;20664;-50
2023/09/11 07:01:54;;;;;;;15.98;5.75;;;;;;;18.03;85.37;64867.50;5030122;28;20210;-51
2023/09/11 07:04:20;;;;;;;9.77;4.35;;;;;;;18.38;80.15;64906.09;5030114;28;20213;-50
2023/09/11 07:06:46;;;;;;;7.80;4.05;;;;;;;18.31;80.68;64895.81;5030417;28;20271;-51
2023/09/11 07:09:12;;;;;;;8.05;4.47;;;;;;;18.13;82.16;64878.53;5028914;28;20221;-50
2023/09/11 07:11:37;;;;;;;9.73;4.25;;;;;;;18.42;81.11;64907.97;5028702;28;20214;-51
2023/09/11 07:14:05;;;;;;;11.88;4.45;;;;;;;18.59;79.99;64928.72;5030059;28;20196;-51
2023/09/11 07:16:31;;;;;;;11.15;4.60;;;;;;;18.78;79.16;64947.69;5029952;28;20409;-50
2023/09/11 07:18:57;;;;;;;11.15;4.40;;;;;;;18.96;78.31;64970.13;5029920;28;20231;-50
2023/09/11 07:21:22;;;;;;;9.00;4.60;;;;;;;19.04;76.22;64980.94;5030275;28;20241;-49
2023/09/11 07:23:48;;;;;;;8.93;5.15;;;;;;;19.30;76.01;65004.53;5030070;28;20285;-51
2023/09/11 07:26:13;;;;;;;10.40;4.43;;;;;;;19.21;76.56;64994.59;5030114;28;20268;-50
2023/09/11 07:28:55;;;;;;;9.15;4.45;;;;;;;19.10;74.85;64982.44;5028635;28;20202;-49
2023/09/11 07:31:22;;;;;;;8.68;4.70;;;;;;;19.29;74.52;65006.53;5030106;28;20210;-54
2023/09/11 07:33:47;;;;;;;11.55;4.85;;;;;;;19.29;73.07;65006.53;5012264;28;20268;-53
2023/09/11 07:36:14;;;;;;;12.13;4.43;;;;;;;19.45;72.44;65023.69;5029955;28;20210;-53
2023/09/11 07:38:44;;;;;;;12.63;5.00;;;;;;;19.64;72.80;65044.09;5033666;28;20198;-53
2023/09/11 07:41:20;;;;;;;8.95;4.45;;;;;;;19.74;72.89;65055.69;5032319;28;20204;-54
2023/09/11 07:43:49;;;;;;;9.00;4.43;;;;;;;19.96;71.63;65082.53;5033344;28;20213;-53
2023/09/11 07:46:20;;;;;;;7.85;4.50;;;;;;;20.43;68.50;65128.25;5044669;22;20645;-50
2023/09/11 07:48:46;;;;;;;9.65;4.80;;;;;;;20.50;68.00;65139.09;5073303;28;20204;-52
2023/09/11 07:51:12;;;;;;;9.27;4.60;;;;;;;20.27;69.00;65113.16;5070308;28;20217;-51
2023/09/11 07:53:38;;;;;;;12.00;4.60;;;;;;;20.32;66.50;65118.69;5053083;28;20197;-50
2023/09/11 07:56:08;;;;;;;8.43;4.05;;;;;;;20.32;66.28;65116.13;5053007;28;20329;-50
2023/09/11 07:58:35;;;;;;;11.50;4.88;;;;;;;20.74;65.19;65165.09;5035067;28;20289;-51
2023/09/11 08:01:03;;;;;;;13.38;4.50;;;;;;;21.00;62.99;65195.84;5052994;28;20671;-50
2023/09/11 08:03:28;;;;;;;5.60;4.15;;;;;;;21.15;63.85;65207.34;5052936;28;20202;-50
2023/09/11 08:05:54;;;;;;;6.82;4.40;;;;;;;21.00;64.08;65195.84;5052826;28;20201;-50
2023/09/11 08:08:20;;;;;;;11.02;4.43;;;;;;;21.00;62.68;65193.28;5052836;28;20246;-50
2023/09/11 08:10:46;;;;;;;9.23;4.15;;;;;;;21.06;62.02;65199.94;5018488;28;20204;-51
2023/09/11 08:13:11;;;;;;;9.27;4.88;;;;;;;21.26;62.47;65219.47;5052817;28;20699;-52
2023/09/11 08:15:38;;;;;;;6.47;3.75;;;;;;;21.68;61.19;65268.50;5052734;28;20249;-51
2023/09/11 08:18:03;;;;;;;10.05;4.45;;;;;;;21.96;59.78;65298.97;5052945;28;20209;-51
2023/09/11 08:20:29;;;;;;;8.85;4.82;;;;;;;22.16;59.63;65319.06;5052909;28;20197;-52
2023/09/11 08:22:54;;;;;;;8.18;3.58;;;;;;;22.35;56.65;65342.69;5052579;28;20247;-53
2023/09/11 08:25:20;;;;;;;5.90;4.07;;;;;;;22.41;56.29;65348.75;5052648;28;20200;-54
2023/09/11 08:27:46;;;;;;;7.57;3.70;;;;;;;22.76;56.43;65384.97;5052480;28;20268;-53
2023/09/11 08:30:13;;;;;;;6.25;3.28;;;;;;;23.08;52.45;65419.84;5052537;28;20197;-53
2023/09/11 08:32:39;;;;;;;7.75;3.38;;;;;;;23.07;49.88;65418.75;5052663;28;20221;-52
2023/09/11 08:35:06;;;;;;;9.88;4.68;;;;;;;23.17;51.33;65432.94;5052531;28;20288;-55
2023/09/11 08:37:31;;;;;;;5.53;3.88;;;;;;;23.27;49.55;65441.44;5034507;28;20322;-53
2023/09/11 08:39:57;;;;;;;11.43;4.60;;;;;;;23.45;49.15;65460.31;5052352;28;20225;-58
2023/09/11 08:42:23;;;;;;;14.55;4.82;;;;;;;23.37;48.29;65448.88;5050910;28;20610;-53
2023/09/11 08:44:50;;;;;;;11.13;4.50;;;;;;;23.40;50.28;65452.19;5052186;28;20255;-53
2023/09/11 08:47:18;;;;;;;9.30;4.35;;;;;;;23.78;49.23;65499.44;5052214;28;20201;-53
2023/09/11 08:49:51;;;;;;;10.32;4.60;;;;;;;24.22;47.66;65545.13;5034408;28;20213;-53
2023/09/11 08:52:18;;;;;;;12.07;3.90;;;;;;;23.91;48.29;65511.28;5052396;28;20209;-53
2023/09/11 08:54:49;;;;;;;12.50;3.92;;;;;;;24.33;46.91;65559.91;5034450;28;20201;-53
2023/09/11 08:57:21;;;;;;;15.57;4.18;;;;;;;24.39;47.96;65564.53;5034229;28;20218;-53
2023/09/11 08:59:53;;;;;;;6.13;3.47;;;;;;;24.85;48.20;65618.16;5034096;28;20209;-53
2023/09/11 09:02:20;;;;;;;7.20;3.15;;;;;;;25.31;45.46;65668.09;5052019;28;20233;-54
2023/09/11 09:04:48;;;;;;;8.75;3.10;;;;;;;25.56;44.50;65693.28;5052216;28;20233;-53
2023/09/11 09:07:16;;;;;;;8.90;3.25;;;;;;;25.84;45.15;65723.81;5052472;28;20210;-53
2023/09/11 09:09:43;;;;;;;8.23;3.28;;;;;;;26.11;43.84;65751.22;5051843;28;20675;-52
2023/09/11 09:12:10;;;;;;;4.05;2.95;;;;;;;25.97;43.56;65738.25;5034019;28;20225;-52
2023/09/11 09:14:39;;;;;;;6.68;3.42;;;;;;;26.48;42.72;65792.34;5052002;28;20206;-52
2023/09/11 09:17:05;;;;;;;6.80;3.00;;;;;;;26.39;42.46;65782.91;5033794;28;20213;-53
2023/09/11 09:19:31;;;;;;;4.93;3.33;;;;;;;26.30;41.52;65775.47;5051838;28;20208;-53
2023/09/11 09:22:06;;;;;;;5.13;2.97;;;;;;;26.22;41.24;65769.16;5051579;28;20687;-52
2023/09/11 09:24:36;;;;;;;8.98;3.17;;;;;;;25.62;42.39;65700.50;5051590;28;20205;-54
2023/09/11 09:27:06;;;;;;;7.20;2.63;;;;;;;25.60;42.27;65695.69;5051598;28;20213;-58
2023/09/11 09:29:38;;;;;;;6.20;3.03;;;;;;;25.65;43.09;65703.28;5051759;28;20198;-53
2023/09/11 09:32:06;;;;;;;7.78;3.00;;;;;;;26.59;42.60;65809.72;5051479;28;20208;-53
2023/09/11 09:34:34;;;;;;;8.95;2.88;;;;;;;26.35;42.78;65780.47;5051609;28;20268;-55
2023/09/11 09:36:59;;;;;;;9.23;2.42;;;;;;;27.11;40.60;65864.41;5051623;28;20222;-53
2023/09/11 09:39:28;;;;;;;7.10;2.63;;;;;;;27.18;40.39;65869.59;5051697;28;20292;-53
2023/09/11 09:41:56;;;;;;;3.60;2.85;;;;;;;27.28;38.60;65883.28;5051467;28;20251;-52
2023/09/11 09:44:29;;;;;;;5.65;2.78;;;;;;;27.58;39.42;65916.13;5033492;28;20283;-52
2023/09/11 09:46:54;;;;;;;6.18;2.63;;;;;;;27.47;39.23;65903.91;5051102;28;20205;-53
2023/09/11 09:49:23;;;;;;;5.90;2.83;;;;;;;27.76;38.39;65936.69;5051437;28;20204;-53
2023/09/11 09:51:49;;;;;;;6.07;2.63;;;;;;;27.44;38.08;65901.09;5051721;28;20225;-53
2023/09/11 09:54:15;;;;;;;5.15;2.92;;;;;;;27.70;37.65;65929.47;5051246;28;20280;-52
2023/09/11 09:56:42;;;;;;;6.60;2.67;;;;;;;28.27;37.80;65990.31;5033224;28;20224;-52
2023/09/11 09:59:07;;;;;;;4.45;2.65;;;;;;;28.68;37.65;66038.00;5050217;28;20193;-52
2023/09/11 10:01:45;;;;;;;3.83;2.70;;;;;;;28.68;37.00;66035.41;5033226;28;20205;-53
2023/09/11 10:04:15;;;;;;;4.60;3.08;;;;;;;27.77;37.01;65937.25;5033129;28;20204;-51
2023/09/11 10:06:41;;;;;;;5.85;3.03;;;;;;;27.66;37.35;65925.00;5032986;28;20213;-52
2023/09/11 10:09:12;;;;;;;4.15;3.03;;;;;;;28.37;35.89;66000.88;5051153;28;20212;-54
2023/09/11 10:11:39;;;;;;;6.00;3.35;;;;;;;29.19;35.06;66091.66;5050919;28;20299;-53
2023/09/11 10:14:08;;;;;;;3.75;2.70;;;;;;;29.47;35.45;66125.97;5050986;28;20203;-53
2023/09/11 10:16:34;;;;;;;2.65;2.42;;;;;;;29.58;34.12;66135.63;5051221;28;20240;-52
2023/09/11 10:19:00;;;;;;;6.93;2.90;;;;;;;29.43;34.17;66118.38;5050910;28;20290;-53
2023/09/11 10:21:27;;;;;;;6.63;2.92;;;;;;;29.34;34.39;66108.34;5051088;28;20209;-52
2023/09/11 10:23:54;;;;;;;6.93;3.17;;;;;;;29.46;34.38;66124.84;5050807;28;20254;-53
2023/09/11 10:26:43;;;;;;;3.67;2.70;;;;;;;29.66;33.88;66144.53;5032856;28;20201;-53
2023/09/11 10:29:11;;;;;;;2.70;2.17;;;;;;;29.87;33.20;66164.25;5050813;28;20259;-52
2023/09/11 10:31:53;;;;;;;10.00;3.25;;;;;;;29.03;34.12;66071.75;5050497;28;20248;-53
2023/09/11 10:34:20;;;;;;;4.03;2.50;;;;;;;30.12;32.74;66194.72;5050702;28;20283;-51
2023/09/11 10:36:52;;;;;;;4.30;2.58;;;;;;;29.84;32.43;66164.63;5050363;28;20217;-51
2023/09/11 10:39:20;;;;;;;5.95;3.13;;;;;;;29.97;31.74;66177.97;5050726;28;20198;-53
2023/09/11 10:41:46;;;;;;;5.53;2.83;;;;;;;29.59;33.12;66136.72;5050836;28;20243;-54
2023/09/11 10:44:11;;;;;;;4.10;2.70;;;;;;;30.46;32.10;66232.63;5032558;28;20675;-52
2023/09/11 10:46:38;;;;;;;9.20;2.92;;;;;;;29.34;32.70;66106.31;5050394;28;20210;-53
2023/09/11 10:49:19;;;;;;;8.13;2.72;;;;;;;29.64;34.61;66141.75;5050535;28;20217;-53
2023/09/11 10:51:47;;;;;;;6.22;2.88;;;;;;;29.95;33.64;66175.75;5032582;28;20205;-54
2023/09/11 10:54:15;;;;;;;3.00;2.78;;;;;;;29.80;32.45;66160.16;5032159;28;20210;-52
2023/09/11 10:56:42;;;;;;;5.35;2.40;;;;;;;30.30;32.78;66212.19;5032246;28;20221;-53
2023/09/11 10:59:08;;;;;;;5.15;3.10;;;;;;;30.34;31.90;66219.78;5050270;28;20201;-55
2023/09/11 11:01:35;;;;;;;11.25;2.95;;;;;;;30.34;31.30;66219.78;5050304;28;20224;-54
2023/09/11 11:04:04;;;;;;;5.88;2.90;;;;;;;30.44;32.03;66228.34;5050220;28;20209;-55
2023/09/11 11:06:31;;;;;;;6.60;3.08;;;;;;;30.38;31.74;66223.72;5050177;28;20210;-53
2023/09/11 11:08:57;;;;;;;3.47;2.75;;;;;;;30.64;30.92;66253.22;5069198;22;20293;-54
2023/09/11 11:11:29;;;;;;;6.72;2.70;;;;;;;31.17;31.69;66314.41;5067406;28;20256;-55
2023/09/11 11:14:11;;;;;;;4.72;2.65;;;;;;;31.59;31.75;66357.56;5053748;28;20225;-56
2023/09/11 11:16:37;;;;;;;5.20;2.75;;;;;;;29.84;32.11;66159.41;5053293;28;20229;-53
2023/09/11 11:19:04;;;;;;;5.47;2.65;;;;;;;30.75;31.95;66264.38;5053992;28;20285;-53
2023/09/11 11:21:39;;;;;;;4.05;2.70;;;;;;;29.74;32.19;66153.47;5053317;28;20217;-53
2023/09/11 11:24:05;;;;;;;9.25;2.80;;;;;;;30.53;31.39;66240.41;5054129;28;20227;-54
2023/09/11 11:26:40;;;;;;;4.50;2.67;;;;;;;31.28;31.19;66320.91;5053574;28;20699;-54
2023/09/11 11:29:05;;;;;;;9.73;3.00;;;;;;;31.62;30.66;66360.91;5053818;28;20212;-54